createdAt,value
2023-04-18T00:00:37.864Z,33.83
2023-04-18T00:03:09.586Z,38.23
2023-04-18T00:05:37.994Z,32.03
2023-04-18T00:08:06.118Z,36.77
2023-04-18T00:10:34.086Z,33.73
2023-04-18T00:13:02.064Z,37.73
2023-04-18T00:15:30.423Z,33.60
2023-04-18T00:17:58.614Z,33.80
2023-04-18T00:20:27.919Z,35.80
2023-04-18T00:22:56.088Z,34.73
2023-04-18T00:25:24.048Z,36.30
2023-04-18T00:27:52.057Z,36.03
2023-04-18T00:30:20.032Z,34.33
2023-04-18T00:32:48.006Z,42.50
2023-04-18T00:35:16.027Z,34.37
2023-04-18T00:37:45.376Z,37.60
2023-04-18T00:40:13.589Z,37.43
2023-04-18T00:42:41.581Z,39.13
2023-04-18T00:45:10.520Z,34.67
2023-04-18T00:47:38.473Z,34.43
2023-04-18T00:50:07.799Z,33.43
2023-04-18T00:52:36.003Z,38.93
2023-04-18T00:55:07.267Z,38.20
2023-04-18T00:57:36.015Z,42.80
2023-04-18T01:00:08.689Z,37.23
2023-04-18T01:02:37.015Z,34.27
2023-04-18T01:05:06.160Z,37.87
2023-04-18T01:07:37.250Z,35.03
2023-04-18T01:10:07.937Z,32.77
2023-04-18T01:12:49.671Z,37.77
2023-04-18T01:15:18.382Z,40.50
2023-04-18T01:17:47.282Z,35.20
2023-04-18T01:20:16.717Z,38.90
2023-04-18T01:22:44.677Z,35.60
2023-04-18T01:25:14.667Z,38.53
2023-04-18T01:27:43.357Z,37.07
2023-04-18T01:30:12.545Z,39.27
2023-04-18T01:32:40.703Z,43.33
2023-04-18T01:35:09.749Z,37.63
2023-04-18T01:37:37.808Z,31.63
2023-04-18T01:40:06.752Z,35.00
2023-04-18T01:42:36.190Z,38.27
2023-04-18T01:45:04.974Z,41.20
2023-04-18T01:47:32.947Z,40.23
2023-04-18T01:50:00.982Z,34.80
2023-04-18T01:52:32.210Z,41.73
2023-04-18T01:55:02.056Z,38.23
2023-04-18T01:57:30.418Z,37.50
2023-04-18T01:59:59.760Z,38.10
2023-04-18T02:02:27.895Z,39.03
2023-04-18T02:04:55.945Z,39.07
2023-04-18T02:07:23.946Z,40.10
2023-04-18T02:09:52.321Z,34.57
2023-04-18T02:12:20.380Z,41.27
2023-04-18T02:14:53.961Z,44.83
2023-04-18T02:17:24.084Z,40.53
2023-04-18T02:19:52.538Z,40.90
2023-04-18T02:22:21.551Z,37.30
2023-04-18T02:24:49.465Z,39.80
2023-04-18T02:27:17.439Z,36.17
2023-04-18T02:29:45.737Z,41.97
2023-04-18T02:32:13.744Z,38.53
2023-04-18T02:34:46.354Z,39.20
2023-04-18T02:37:14.297Z,41.13
2023-04-18T02:39:42.243Z,38.03
2023-04-18T02:42:10.315Z,38.37
2023-04-18T02:44:38.295Z,41.00
2023-04-18T02:47:06.351Z,44.07
2023-04-18T02:49:39.611Z,45.23
2023-04-18T02:52:09.009Z,41.80
2023-04-18T02:54:37.550Z,43.23
2023-04-18T02:57:10.378Z,43.43
2023-04-18T02:59:53.914Z,38.20
2023-04-18T03:02:40.598Z,40.03
2023-04-18T03:05:24.344Z,37.33
2023-04-18T03:07:56.678Z,42.30
2023-04-18T03:10:24.785Z,42.73
2023-04-18T03:12:52.980Z,40.30
2023-04-18T03:15:22.040Z,40.27
2023-04-18T03:17:50.964Z,40.67
2023-04-18T03:20:22.201Z,38.37
2023-04-18T03:22:50.218Z,39.93
2023-04-18T03:25:23.810Z,42.27
2023-04-18T03:27:54.057Z,39.67
2023-04-18T03:30:24.002Z,40.47
2023-04-18T03:32:57.102Z,42.77
2023-04-18T03:35:25.126Z,45.00
2023-04-18T03:37:53.161Z,51.33
2023-04-18T03:40:32.290Z,46.60
2023-04-18T03:43:09.340Z,40.07
2023-04-18T03:45:37.545Z,46.40
2023-04-18T03:48:07.149Z,42.17
2023-04-18T03:50:39.221Z,45.63
2023-04-18T03:53:11.104Z,45.70
2023-04-18T03:55:43.732Z,48.77
2023-04-18T03:58:14.910Z,45.80
2023-04-18T04:00:42.944Z,35.43
2023-04-18T04:03:12.428Z,41.63
2023-04-18T04:05:41.334Z,40.87
2023-04-18T04:08:09.313Z,39.00
2023-04-18T04:10:37.441Z,37.30
2023-04-18T04:13:07.049Z,33.37
2023-04-18T04:15:38.634Z,36.57
2023-04-18T04:18:09.057Z,38.93
2023-04-18T04:20:40.305Z,40.87
2023-04-18T04:23:13.770Z,36.50
2023-04-18T04:25:46.357Z,37.00
2023-04-18T04:28:36.725Z,37.10
2023-04-18T04:31:09.320Z,36.17
2023-04-18T04:33:38.790Z,38.73
2023-04-18T04:36:15.209Z,40.40
2023-04-18T04:38:45.674Z,39.77
2023-04-18T04:41:13.963Z,38.00
2023-04-18T04:43:43.371Z,38.63
2023-04-18T04:46:14.829Z,45.33
2023-04-18T04:48:44.184Z,39.60
2023-04-18T04:51:12.291Z,42.60
2023-04-18T04:53:40.349Z,35.57
2023-04-18T04:56:09.372Z,36.17
2023-04-18T04:58:37.988Z,35.53
2023-04-18T05:01:15.137Z,34.17
2023-04-18T05:03:43.529Z,37.20
2023-04-18T05:06:11.875Z,33.83
2023-04-18T05:08:39.933Z,34.83
2023-04-18T05:11:07.922Z,37.73
2023-04-18T05:13:35.966Z,35.47
2023-04-18T05:16:04.198Z,30.73
2023-04-18T05:18:35.041Z,30.17
2023-04-18T05:21:03.148Z,34.63
2023-04-18T05:23:31.258Z,35.23
2023-04-18T05:25:59.324Z,33.30
2023-04-18T05:28:27.688Z,34.70
2023-04-18T05:31:01.087Z,32.50
2023-04-18T05:33:29.361Z,31.67
2023-04-18T05:35:59.536Z,38.20
2023-04-18T05:38:32.659Z,51.33
2023-04-18T05:41:02.981Z,32.47
2023-04-18T05:43:31.085Z,36.77
2023-04-18T05:45:59.060Z,34.93
2023-04-18T05:48:27.096Z,32.50
2023-04-18T05:50:55.034Z,64.00
2023-04-18T05:53:24.589Z,77.70
2023-04-18T05:55:53.992Z,41.80
2023-04-18T05:58:22.177Z,40.10
2023-04-18T06:00:50.677Z,32.13
2023-04-18T06:03:18.989Z,33.13
2023-04-18T06:05:47.220Z,29.33
2023-04-18T06:08:15.448Z,30.00
2023-04-18T06:10:44.812Z,29.40
2023-04-18T06:13:12.984Z,25.70
2023-04-18T06:15:41.151Z,32.23
2023-04-18T06:18:09.106Z,31.13
2023-04-18T06:20:37.266Z,30.17
2023-04-18T06:23:05.243Z,34.87
2023-04-18T06:25:33.336Z,27.63
2023-04-18T06:28:11.644Z,28.30
2023-04-18T06:30:41.760Z,31.30
2023-04-18T06:33:11.093Z,29.53
2023-04-18T06:35:39.638Z,35.43
2023-04-18T06:38:07.800Z,30.57
2023-04-18T06:40:36.211Z,33.07
2023-04-18T06:43:09.870Z,32.60
2023-04-18T06:45:41.608Z,31.70
2023-04-18T06:48:10.703Z,30.80
2023-04-18T06:50:38.992Z,28.10
2023-04-18T06:53:07.201Z,29.43
2023-04-18T06:55:35.375Z,28.63
2023-04-18T06:58:05.510Z,27.90
2023-04-18T07:00:33.643Z,30.37
2023-04-18T07:03:03.098Z,31.57
2023-04-18T07:05:31.344Z,28.90
2023-04-18T07:08:00.070Z,29.03
2023-04-18T07:10:32.728Z,31.03
2023-04-18T07:13:05.681Z,26.83
2023-04-18T07:15:35.675Z,29.43
2023-04-18T07:18:03.678Z,30.27
2023-04-18T07:20:31.758Z,30.00
2023-04-18T07:22:59.847Z,27.40
2023-04-18T07:25:27.909Z,30.30
2023-04-18T07:27:55.970Z,27.83
2023-04-18T07:30:26.339Z,30.67
2023-04-18T07:32:54.482Z,31.37
2023-04-18T07:35:22.795Z,30.27
2023-04-18T07:37:53.890Z,26.47
2023-04-18T07:40:22.319Z,25.50
2023-04-18T07:42:50.290Z,25.00
2023-04-18T07:45:19.120Z,26.70
2023-04-18T07:47:48.616Z,23.87
2023-04-18T07:50:16.618Z,28.47
2023-04-18T07:52:47.638Z,24.67
2023-04-18T07:55:15.760Z,25.00
2023-04-18T07:57:45.881Z,29.97
2023-04-18T08:00:15.865Z,26.23
2023-04-18T08:02:43.988Z,25.50
2023-04-18T08:05:13.497Z,24.70
2023-04-18T08:07:41.813Z,24.33
2023-04-18T08:10:10.461Z,29.60
2023-04-18T08:12:38.896Z,22.73
2023-04-18T08:15:08.163Z,26.20
2023-04-18T08:17:36.251Z,22.77
2023-04-18T08:20:07.256Z,31.97
2023-04-18T08:22:44.031Z,24.40
2023-04-18T08:25:18.910Z,23.13
2023-04-18T08:27:46.965Z,24.23
2023-04-18T08:30:15.764Z,22.57
2023-04-18T08:32:43.817Z,23.53
2023-04-18T08:35:11.919Z,23.03
2023-04-18T08:37:41.646Z,19.70
2023-04-18T08:40:10.105Z,24.30
2023-04-18T08:42:38.451Z,22.03
2023-04-18T08:45:07.623Z,19.70
2023-04-18T08:47:36.343Z,26.80
2023-04-18T08:50:04.989Z,22.80
2023-04-18T08:52:34.175Z,23.70
2023-04-18T08:55:03.868Z,22.07
2023-04-18T08:57:33.332Z,20.67
2023-04-18T09:00:01.983Z,23.67
2023-04-18T09:02:42.057Z,22.87
2023-04-18T09:05:14.440Z,22.20
2023-04-18T09:07:43.016Z,25.43
2023-04-18T09:10:13.875Z,26.37
2023-04-18T09:12:50.114Z,21.30
2023-04-18T09:15:22.537Z,20.13
2023-04-18T09:17:53.440Z,22.17
2023-04-18T09:20:35.871Z,19.93
2023-04-18T09:23:05.417Z,21.77
2023-04-18T09:25:40.051Z,21.83
2023-04-18T09:28:24.350Z,21.93
2023-04-18T09:30:53.179Z,21.90
2023-04-18T09:33:28.220Z,19.43
2023-04-18T09:35:56.411Z,21.03
2023-04-18T09:38:39.693Z,23.80
2023-04-18T09:41:13.096Z,21.40
2023-04-18T09:43:41.481Z,20.17
2023-04-18T09:46:10.066Z,21.33
2023-04-18T09:48:38.081Z,24.80
2023-04-18T09:51:07.957Z,22.13
2023-04-18T09:53:39.440Z,20.50
2023-04-18T09:56:10.680Z,21.50
2023-04-18T09:58:42.870Z,21.40
2023-04-18T10:01:13.125Z,23.43
2023-04-18T10:03:47.571Z,20.07
2023-04-18T10:06:17.892Z,28.57
2023-04-18T10:08:47.421Z,23.50
2023-04-18T10:11:15.813Z,21.37
2023-04-18T10:13:48.807Z,20.60
2023-04-18T10:16:18.149Z,20.97
2023-04-18T10:18:46.302Z,18.03
2023-04-18T10:21:14.511Z,21.20
2023-04-18T10:23:42.598Z,21.83
2023-04-18T10:26:11.822Z,21.40
2023-04-18T10:28:56.601Z,18.20
2023-04-18T10:31:25.838Z,28.03
2023-04-18T10:36:28.574Z,19.37
2023-04-18T10:39:01.176Z,19.33
2023-04-18T10:41:30.434Z,22.00
2023-04-18T10:44:19.397Z,16.93
2023-04-18T10:47:22.937Z,17.50
2023-04-18T10:50:00.950Z,22.23
2023-04-18T10:52:29.828Z,20.17
2023-04-18T10:55:09.120Z,24.83
2023-04-18T10:57:41.439Z,19.33
2023-04-18T11:00:14.386Z,16.53
2023-04-18T11:02:50.581Z,17.00
2023-04-18T11:05:24.237Z,20.93
2023-04-18T11:07:53.118Z,15.20
2023-04-18T11:10:23.742Z,13.77
2023-04-18T11:12:52.170Z,13.83
2023-04-18T11:15:22.866Z,11.73
2023-04-18T11:17:58.952Z,14.37
2023-04-18T11:20:27.434Z,13.20
2023-04-18T11:22:57.258Z,14.77
2023-04-18T11:25:28.012Z,16.03
2023-04-18T11:27:59.062Z,14.47
2023-04-18T11:30:29.806Z,13.80
2023-04-18T11:32:57.948Z,24.27
2023-04-18T11:35:26.044Z,13.53
2023-04-18T11:37:56.150Z,13.00
2023-04-18T11:40:24.445Z,15.80
2023-04-18T11:42:55.288Z,18.50
2023-04-18T11:45:23.338Z,14.07
2023-04-18T11:47:58.044Z,13.30
2023-04-18T11:50:26.763Z,14.33
2023-04-18T11:52:55.616Z,14.77
2023-04-18T11:55:25.393Z,15.00
2023-04-18T11:57:54.773Z,12.23
2023-04-18T12:00:33.533Z,13.90
2023-04-18T12:03:05.249Z,15.10
2023-04-18T12:05:35.087Z,13.27
2023-04-18T12:08:07.299Z,14.03
2023-04-18T12:10:35.904Z,11.60
2023-04-18T12:13:08.022Z,12.87
2023-04-18T12:15:39.743Z,12.20
2023-04-18T12:18:09.438Z,14.37
2023-04-18T12:20:39.266Z,15.47
2023-04-18T12:23:07.945Z,12.50
2023-04-18T12:25:36.432Z,16.77
2023-04-18T12:28:14.328Z,13.47
2023-04-18T12:30:43.222Z,12.63
2023-04-18T12:33:14.740Z,14.97
2023-04-18T12:35:43.627Z,16.13
2023-04-18T12:38:11.813Z,10.67
2023-04-18T12:40:40.707Z,15.13
2023-04-18T12:43:09.010Z,12.70
2023-04-18T12:45:37.029Z,13.87
2023-04-18T12:48:05.667Z,16.63
2023-04-18T12:50:35.918Z,13.70
2023-04-18T12:53:04.895Z,14.53
2023-04-18T12:55:33.026Z,11.37
2023-04-18T12:58:01.523Z,16.57
2023-04-18T13:00:32.984Z,12.50
2023-04-18T13:03:01.509Z,13.87
2023-04-18T13:05:33.522Z,17.83
2023-04-18T13:10:34.495Z,11.73
2023-04-18T13:13:02.467Z,11.87
2023-04-18T13:15:30.561Z,11.83
2023-04-18T13:18:04.234Z,10.27
2023-04-18T13:20:32.532Z,10.57
2023-04-18T13:23:00.708Z,12.70
2023-04-18T13:25:30.153Z,13.43
2023-04-18T13:27:58.487Z,9.77
2023-04-18T13:30:27.023Z,11.03
2023-04-18T13:32:55.204Z,11.17
2023-04-18T13:35:23.393Z,13.83
2023-04-18T13:37:51.610Z,12.97
2023-04-18T13:40:19.540Z,11.50
2023-04-18T13:42:48.864Z,15.40
2023-04-18T13:45:16.921Z,9.67
2023-04-18T13:47:45.099Z,8.17
2023-04-18T13:50:13.138Z,8.10
2023-04-18T13:52:41.122Z,9.23
2023-04-18T13:55:10.651Z,9.37
2023-04-18T13:57:38.691Z,7.40
2023-04-18T14:00:09.929Z,8.17
2023-04-18T14:02:41.374Z,9.57
2023-04-18T14:05:10.670Z,9.73
2023-04-18T14:07:39.337Z,7.30
2023-04-18T14:10:08.434Z,7.97
2023-04-18T14:12:36.969Z,12.07
2023-04-18T14:15:07.835Z,8.43
2023-04-18T14:17:35.919Z,8.67
2023-04-18T14:20:04.763Z,6.57
2023-04-18T14:22:35.059Z,7.07
2023-04-18T14:25:03.260Z,11.77
2023-04-18T14:27:31.289Z,6.23
2023-04-18T14:29:59.937Z,8.73
2023-04-18T14:32:31.058Z,8.97
2023-04-18T14:34:59.842Z,6.33
2023-04-18T14:37:27.951Z,8.60
2023-04-18T14:39:56.056Z,8.53
2023-04-18T14:42:24.096Z,7.57
2023-04-18T14:44:52.132Z,8.77
2023-04-18T14:47:20.131Z,4.83
2023-04-18T14:49:49.520Z,9.93
2023-04-18T14:52:17.529Z,5.43
2023-04-18T14:54:45.646Z,6.47
2023-04-18T14:57:13.864Z,4.63
2023-04-18T14:59:41.854Z,7.73
2023-04-18T15:02:10.070Z,7.17
2023-04-18T15:04:38.282Z,5.67
2023-04-18T15:07:07.906Z,7.40
2023-04-18T15:09:37.583Z,6.03
2023-04-18T15:12:06.796Z,5.90
2023-04-18T15:14:35.665Z,10.63
2023-04-18T15:17:04.522Z,5.83
2023-04-18T15:19:32.832Z,5.90
2023-04-18T15:22:00.944Z,6.07
2023-04-18T15:24:30.590Z,7.40
2023-04-18T15:26:58.841Z,5.87
2023-04-18T15:29:26.954Z,6.10
2023-04-18T15:31:54.974Z,8.77
2023-04-18T15:34:23.202Z,8.37
2023-04-18T15:36:51.374Z,8.70
2023-04-18T15:39:23.213Z,8.67
2023-04-18T15:41:55.086Z,7.33
2023-04-18T15:44:23.548Z,9.87
2023-04-18T15:46:51.815Z,7.73
2023-04-18T15:49:19.826Z,11.70
2023-04-18T15:51:47.783Z,7.67
2023-04-18T15:54:16.020Z,8.30
2023-04-18T15:56:44.791Z,8.17
2023-04-18T15:59:14.677Z,9.57
2023-04-18T16:01:45.674Z,7.50
2023-04-18T16:04:14.662Z,8.67
2023-04-18T16:06:43.215Z,8.50
2023-04-18T16:09:11.153Z,6.87
2023-04-18T16:11:39.548Z,6.37
2023-04-18T16:14:10.276Z,5.77
2023-04-18T16:16:39.722Z,7.67
2023-04-18T16:19:07.691Z,7.97
2023-04-18T16:21:35.800Z,6.70
2023-04-18T16:24:03.742Z,6.40
2023-04-18T16:26:31.780Z,7.80
2023-04-18T16:28:59.758Z,9.63
2023-04-18T16:31:27.960Z,10.00
2023-04-18T16:33:57.419Z,9.03
2023-04-18T16:36:25.845Z,7.87
2023-04-18T16:38:57.940Z,10.10
2023-04-18T16:41:26.910Z,12.53
2023-04-18T16:43:54.943Z,9.33
2023-04-18T16:46:23.055Z,9.17
2023-04-18T16:48:52.397Z,9.70
2023-04-18T16:51:21.974Z,8.97
2023-04-18T16:53:50.079Z,9.17
2023-04-18T16:56:18.006Z,9.60
2023-04-18T16:58:45.952Z,7.97
2023-04-18T17:01:14.014Z,9.43
2023-04-18T17:03:42.396Z,12.13
2023-04-18T17:06:10.420Z,11.67
2023-04-18T17:08:39.770Z,16.43
2023-04-18T17:11:07.728Z,10.43
2023-04-18T17:13:36.251Z,11.70
2023-04-18T17:16:04.545Z,13.93
2023-04-18T17:18:33.106Z,15.43
2023-04-18T17:21:01.012Z,13.00
2023-04-18T17:23:30.333Z,14.50
2023-04-18T17:26:00.947Z,12.83
2023-04-18T17:28:28.949Z,14.63
2023-04-18T17:30:57.480Z,15.17
2023-04-18T17:33:25.516Z,13.27
2023-04-18T17:35:53.591Z,17.40
2023-04-18T17:38:21.604Z,15.80
2023-04-18T17:40:49.815Z,11.23
2023-04-18T17:43:19.240Z,11.13
2023-04-18T17:45:52.602Z,13.23
2023-04-18T17:48:21.168Z,14.67
2023-04-18T17:50:49.215Z,12.13
2023-04-18T17:53:18.836Z,10.87
2023-04-18T17:55:50.378Z,13.17
2023-04-18T17:58:19.877Z,24.90
2023-04-18T18:00:48.237Z,11.23
2023-04-18T18:03:17.104Z,10.93
2023-04-18T18:05:47.035Z,17.80
2023-04-18T18:08:15.276Z,17.00
2023-04-18T18:10:44.335Z,21.80
2023-04-18T18:13:12.411Z,22.77
2023-04-18T18:15:41.904Z,16.40
2023-04-18T18:18:10.163Z,16.80
2023-04-18T18:20:38.238Z,14.53
2023-04-18T18:23:06.772Z,12.93
2023-04-18T18:25:36.972Z,11.97
2023-04-18T18:28:05.308Z,14.13
2023-04-18T18:30:33.555Z,17.73
2023-04-18T18:33:03.776Z,15.73
2023-04-18T18:35:31.857Z,13.73
2023-04-18T18:37:59.889Z,11.40
2023-04-18T18:40:27.976Z,22.43
2023-04-18T18:42:56.757Z,13.93
2023-04-18T18:45:24.891Z,11.87
2023-04-18T18:47:53.005Z,14.17
2023-04-18T18:50:22.612Z,19.80
2023-04-18T18:52:50.645Z,10.90
2023-04-18T18:55:18.624Z,15.70
2023-04-18T18:57:46.566Z,14.80
2023-04-18T19:00:14.977Z,9.87
2023-04-18T19:02:43.119Z,11.20
2023-04-18T19:05:12.765Z,10.27
2023-04-18T19:07:42.837Z,8.50
2023-04-18T19:10:11.716Z,24.97
2023-04-18T19:12:41.831Z,12.53
2023-04-18T19:15:11.091Z,14.47
2023-04-18T19:17:39.156Z,12.83
2023-04-18T19:20:09.043Z,10.57
2023-04-18T19:22:37.352Z,13.20
2023-04-18T19:25:07.824Z,15.17
2023-04-18T19:27:35.844Z,12.07
2023-04-18T19:30:03.942Z,13.33
2023-04-18T19:32:32.631Z,14.63
2023-04-18T19:35:00.793Z,10.20
2023-04-18T19:37:28.873Z,12.00
2023-04-18T19:39:59.403Z,8.77
2023-04-18T19:42:29.404Z,12.23
2023-04-18T19:44:57.722Z,9.60
2023-04-18T19:47:27.488Z,9.97
2023-04-18T19:49:58.917Z,10.73
2023-04-18T19:52:27.405Z,11.30
2023-04-18T19:54:56.666Z,12.13
2023-04-18T19:57:26.335Z,11.37
2023-04-18T19:59:56.610Z,9.23
2023-04-18T20:02:24.860Z,12.50
2023-04-18T20:04:55.055Z,10.23
2023-04-18T20:07:25.527Z,12.23
2023-04-18T20:09:54.318Z,12.03
2023-04-18T20:12:22.359Z,12.83
2023-04-18T20:14:50.456Z,13.23
2023-04-18T20:17:19.811Z,12.53
2023-04-18T20:19:49.616Z,14.53
2023-04-18T20:22:17.851Z,12.70
2023-04-18T20:24:46.145Z,15.23
2023-04-18T20:27:14.212Z,13.03
2023-04-18T20:29:42.298Z,12.77
2023-04-18T20:32:12.244Z,15.33
2023-04-18T20:34:41.679Z,17.40
2023-04-18T20:37:10.036Z,13.80
2023-04-18T20:39:39.876Z,14.70
2023-04-18T20:42:07.905Z,16.83
2023-04-18T20:44:36.002Z,13.77
2023-04-18T20:47:03.952Z,16.57
2023-04-18T20:49:32.024Z,14.27
2023-04-18T20:52:01.564Z,15.53
2023-04-18T20:54:29.568Z,18.17
2023-04-18T20:56:57.569Z,17.80
2023-04-18T20:59:25.774Z,13.50
2023-04-18T21:01:53.854Z,14.03
2023-04-18T21:04:22.349Z,15.70
2023-04-18T21:06:50.625Z,16.20
2023-04-18T21:09:19.993Z,19.83
2023-04-18T21:11:48.002Z,15.20
2023-04-18T21:14:17.220Z,16.03
2023-04-18T21:16:45.714Z,14.77
2023-04-18T21:19:15.573Z,16.77
2023-04-18T21:21:43.604Z,15.57
2023-04-18T21:24:11.679Z,13.90
2023-04-18T21:26:41.093Z,17.03
2023-04-18T21:29:11.180Z,15.70
2023-04-18T21:31:39.439Z,15.53
2023-04-18T21:34:07.476Z,15.43
2023-04-18T21:36:35.977Z,15.27
2023-04-18T21:39:04.647Z,12.60
2023-04-18T21:41:32.811Z,15.07
2023-04-18T21:44:02.242Z,13.43
2023-04-18T21:46:30.332Z,12.60
2023-04-18T21:48:58.350Z,14.10
2023-04-18T21:51:27.263Z,12.80
2023-04-18T21:53:55.410Z,13.67
2023-04-18T21:56:23.394Z,11.80
2023-04-18T21:58:51.433Z,11.60
2023-04-18T22:01:22.084Z,11.10
2023-04-18T22:03:50.253Z,11.80
2023-04-18T22:06:18.358Z,16.77
2023-04-18T22:08:46.535Z,12.50
2023-04-18T22:11:16.034Z,11.53
2023-04-18T22:13:44.737Z,11.63
2023-04-18T22:16:13.700Z,12.00
2023-04-18T22:18:43.165Z,12.50
2023-04-18T22:21:11.322Z,14.40
2023-04-18T22:23:39.421Z,12.10
2023-04-18T22:26:07.446Z,12.37
2023-04-18T22:28:35.581Z,11.27
2023-04-18T22:31:03.586Z,11.00
2023-04-18T22:33:31.571Z,9.67
2023-04-18T22:36:01.548Z,12.47
2023-04-18T22:38:29.474Z,12.07
2023-04-18T22:40:57.608Z,11.20
2023-04-18T22:43:26.957Z,12.20
2023-04-18T22:45:55.068Z,13.13
2023-04-18T22:48:23.648Z,10.40
2023-04-18T22:50:51.716Z,18.63
2023-04-18T22:53:21.373Z,11.50
2023-04-18T22:55:49.414Z,14.03
2023-04-18T22:58:17.415Z,16.10
2023-04-18T23:00:45.585Z,15.50
2023-04-18T23:03:15.631Z,11.90
2023-04-18T23:05:43.696Z,11.63
2023-04-18T23:08:12.142Z,9.37
2023-04-18T23:10:41.587Z,9.97
2023-04-18T23:13:09.583Z,10.53
2023-04-18T23:15:37.560Z,10.40
2023-04-18T23:18:05.729Z,9.47
2023-04-18T23:20:33.792Z,12.03
2023-04-18T23:23:01.934Z,9.70
2023-04-18T23:25:29.941Z,9.93
2023-04-18T23:27:59.482Z,9.97
2023-04-18T23:30:27.499Z,12.87
2023-04-18T23:32:55.821Z,10.27
2023-04-18T23:35:24.468Z,10.63
2023-04-18T23:37:52.472Z,13.63
2023-04-18T23:40:21.021Z,12.73
2023-04-18T23:42:49.037Z,11.60
2023-04-18T23:45:18.608Z,11.40
2023-04-18T23:47:46.623Z,10.83
2023-04-18T23:50:14.619Z,10.87
2023-04-18T23:52:42.643Z,9.23
2023-04-18T23:55:11.233Z,11.07
2023-04-18T23:57:39.378Z,10.83
